sensor_id;sensor_type;location;lat;lon;timestamp;pressure;altitude;pressure_sealevel;temperature;humidity
53940;BME280;39850;43.324;21.916;2024-02-26T00:00:36;986.0;;;12.7;63.0
53940;BME280;39850;43.324;21.916;2024-02-26T00:05:12;986.0;;;12.7;63.0
53940;BME280;39850;43.324;21.916;2024-02-26T00:09:48;986.0;;;12.7;63.0
53940;BME280;39850;43.324;21.916;2024-02-26T00:14:25;986.0;;;12.7;63.0
53940;BME280;39850;43.324;21.916;2024-02-26T00:51:17;985.0;;;11.6;65.0
53940;BME280;39850;43.324;21.916;2024-02-26T00:55:53;985.0;;;11.6;65.0
53940;BME280;39850;43.324;21.916;2024-02-26T01:00:30;985.0;;;11.6;65.0
53940;BME280;39850;43.324;21.916;2024-02-26T01:05:08;985.0;;;11.6;65.0
53940;BME280;39850;43.324;21.916;2024-02-26T01:09:45;985.0;;;11.6;65.0
53940;BME280;39850;43.324;21.916;2024-02-26T01:14:21;985.0;;;11.6;65.0
53940;BME280;39850;43.324;21.916;2024-02-26T01:18:58;985.0;;;11.6;65.0
53940;BME280;39850;43.324;21.916;2024-02-26T01:23:34;985.0;;;11.6;65.0
53940;BME280;39850;43.324;21.916;2024-02-26T01:28:11;985.0;;;11.6;65.0
53940;BME280;39850;43.324;21.916;2024-02-26T01:32:47;985.0;;;11.6;65.0
53940;BME280;39850;43.324;21.916;2024-02-26T01:37:24;985.0;;;11.6;65.0
53940;BME280;39850;43.324;21.916;2024-02-26T02:09:51;985.0;;;10.7;69.0
53940;BME280;39850;43.324;21.916;2024-02-26T02:14:29;985.0;;;10.7;69.0
53940;BME280;39850;43.324;21.916;2024-02-26T02:19:05;985.0;;;11.1;69.0
53940;BME280;39850;43.324;21.916;2024-02-26T02:23:42;985.0;;;11.1;69.0
53940;BME280;39850;43.324;21.916;2024-02-26T02:28:19;985.0;;;11.6;68.0
53940;BME280;39850;43.324;21.916;2024-02-26T02:32:59;985.0;;;11.6;68.0
53940;BME280;39850;43.324;21.916;2024-02-26T02:37:35;985.0;;;11.6;68.0
53940;BME280;39850;43.324;21.916;2024-02-26T02:42:12;985.0;;;11.6;67.0
53940;BME280;39850;43.324;21.916;2024-02-26T02:46:48;985.0;;;11.6;67.0
53940;BME280;39850;43.324;21.916;2024-02-26T02:51:24;985.0;;;11.7;66.0
53940;BME280;39850;43.324;21.916;2024-02-26T02:56:00;985.0;;;11.7;66.0
53940;BME280;39850;43.324;21.916;2024-02-26T03:28:13;985.0;;;11.7;67.0
53940;BME280;39850;43.324;21.916;2024-02-26T03:32:49;985.0;;;11.7;67.0
53940;BME280;39850;43.324;21.916;2024-02-26T03:37:26;985.0;;;11.7;67.0
53940;BME280;39850;43.324;21.916;2024-02-26T03:42:04;985.0;;;11.7;67.0
53940;BME280;39850;43.324;21.916;2024-02-26T03:46:40;985.0;;;11.7;67.0
53940;BME280;39850;43.324;21.916;2024-02-26T03:51:17;985.0;;;11.7;67.0
53940;BME280;39850;43.324;21.916;2024-02-26T03:55:54;985.0;;;11.7;67.0
53940;BME280;39850;43.324;21.916;2024-02-26T04:00:30;985.0;;;11.8;67.0
53940;BME280;39850;43.324;21.916;2024-02-26T04:05:11;985.0;;;11.8;67.0
53940;BME280;39850;43.324;21.916;2024-02-26T04:09:48;985.0;;;11.8;67.0
53940;BME280;39850;43.324;21.916;2024-02-26T04:14:25;985.0;;;11.8;67.0
53940;BME280;39850;43.324;21.916;2024-02-26T04:51:17;985.0;;;11.8;67.0
53940;BME280;39850;43.324;21.916;2024-02-26T04:55:53;985.0;;;11.8;67.0
53940;BME280;39850;43.324;21.916;2024-02-26T05:00:30;985.0;;;11.2;68.0
53940;BME280;39850;43.324;21.916;2024-02-26T05:05:08;985.0;;;11.2;68.0
53940;BME280;39850;43.324;21.916;2024-02-26T05:09:47;985.0;;;10.7;69.0
53940;BME280;39850;43.324;21.916;2024-02-26T05:14:23;985.0;;;10.7;69.0
53940;BME280;39850;43.324;21.916;2024-02-26T05:18:59;985.0;;;10.7;70.0
53940;BME280;39850;43.324;21.916;2024-02-26T05:23:35;985.0;;;10.7;70.0
53940;BME280;39850;43.324;21.916;2024-02-26T05:28:12;985.0;;;10.7;70.0
53940;BME280;39850;43.324;21.916;2024-02-26T05:32:48;985.0;;;10.7;70.0
53940;BME280;39850;43.324;21.916;2024-02-26T05:37:24;985.0;;;10.7;70.0
53940;BME280;39850;43.324;21.916;2024-02-26T06:09:37;985.0;;;10.9;74.0
53940;BME280;39850;43.324;21.916;2024-02-26T06:14:13;985.0;;;10.9;74.0
53940;BME280;39850;43.324;21.916;2024-02-26T06:18:49;985.0;;;10.6;74.0
53940;BME280;39850;43.324;21.916;2024-02-26T06:23:26;985.0;;;10.6;74.0
53940;BME280;39850;43.324;21.916;2024-02-26T06:28:03;985.0;;;10.6;74.0
53940;BME280;39850;43.324;21.916;2024-02-26T06:32:42;985.0;;;10.4;75.0
53940;BME280;39850;43.324;21.916;2024-02-26T06:37:18;985.0;;;10.4;75.0
53940;BME280;39850;43.324;21.916;2024-02-26T06:41:55;985.0;;;10.2;75.0
53940;BME280;39850;43.324;21.916;2024-02-26T06:46:31;985.0;;;10.2;75.0
53940;BME280;39850;43.324;21.916;2024-02-26T06:51:07;985.0;;;10.1;75.0
53940;BME280;39850;43.324;21.916;2024-02-26T06:55:44;985.0;;;10.1;75.0
53940;BME280;39850;43.324;21.916;2024-02-26T07:32:38;986.0;;;11.6;71.0
53940;BME280;39850;43.324;21.916;2024-02-26T07:37:14;986.0;;;11.6;71.0
53940;BME280;39850;43.324;21.916;2024-02-26T07:41:50;986.0;;;11.6;71.0
53940;BME280;39850;43.324;21.916;2024-02-26T07:46:27;986.0;;;11.6;71.0
53940;BME280;39850;43.324;21.916;2024-02-26T07:51:05;986.0;;;11.7;71.0
53940;BME280;39850;43.324;21.916;2024-02-26T07:55:42;986.0;;;11.7;71.0
53940;BME280;39850;43.324;21.916;2024-02-26T08:00:21;986.0;;;11.8;71.0
53940;BME280;39850;43.324;21.916;2024-02-26T08:04:57;986.0;;;11.8;71.0
53940;BME280;39850;43.324;21.916;2024-02-26T08:09:33;986.0;;;11.8;71.0
53940;BME280;39850;43.324;21.916;2024-02-26T08:14:10;986.0;;;11.8;71.0
53940;BME280;39850;43.324;21.916;2024-02-26T08:18:46;986.0;;;11.8;71.0
53940;BME280;39850;43.324;21.916;2024-02-26T08:50:58;985.0;;;12.7;67.0
53940;BME280;39850;43.324;21.916;2024-02-26T08:55:34;985.0;;;12.7;67.0
53940;BME280;39850;43.324;21.916;2024-02-26T09:00:14;985.0;;;12.7;67.0
53940;BME280;39850;43.324;21.916;2024-02-26T09:04:50;985.0;;;12.7;67.0
53940;BME280;39850;43.324;21.916;2024-02-26T09:09:26;985.0;;;12.7;67.0
53940;BME280;39850;43.324;21.916;2024-02-26T09:14:02;985.0;;;12.7;67.0
53940;BME280;39850;43.324;21.916;2024-02-26T09:18:39;985.0;;;12.7;67.0
53940;BME280;39850;43.324;21.916;2024-02-26T09:23:15;985.0;;;12.7;67.0
53940;BME280;39850;43.324;21.916;2024-02-26T09:27:52;985.0;;;12.7;67.0
53940;BME280;39850;43.324;21.916;2024-02-26T09:32:30;985.0;;;12.7;66.0
53940;BME280;39850;43.324;21.916;2024-02-26T09:37:06;985.0;;;12.7;66.0
53940;BME280;39850;43.324;21.916;2024-02-26T10:09:45;985.0;;;13.7;61.0
53940;BME280;39850;43.324;21.916;2024-02-26T10:14:21;985.0;;;13.7;61.0
53940;BME280;39850;43.324;21.916;2024-02-26T10:18:58;985.0;;;13.7;61.0
53940;BME280;39850;43.324;21.916;2024-02-26T10:23:34;985.0;;;13.7;61.0
53940;BME280;39850;43.324;21.916;2024-02-26T10:28:11;985.0;;;13.7;61.0
53940;BME280;39850;43.324;21.916;2024-02-26T10:32:50;985.0;;;13.6;59.0
53940;BME280;39850;43.324;21.916;2024-02-26T10:37:27;985.0;;;13.6;59.0
53940;BME280;39850;43.324;21.916;2024-02-26T10:42:04;985.0;;;13.5;57.0
53940;BME280;39850;43.324;21.916;2024-02-26T10:46:41;985.0;;;13.5;57.0
53940;BME280;39850;43.324;21.916;2024-02-26T10:51:31;985.0;;;13.5;57.0
53940;BME280;39850;43.324;21.916;2024-02-26T10:56:20;985.0;;;13.5;57.0
53940;BME280;39850;43.324;21.916;2024-02-26T11:33:35;984.0;;;14.4;53.0
53940;BME280;39850;43.324;21.916;2024-02-26T11:38:24;984.0;;;14.4;53.0
53940;BME280;39850;43.324;21.916;2024-02-26T11:43:00;984.0;;;14.4;53.0
53940;BME280;39850;43.324;21.916;2024-02-26T11:47:36;984.0;;;14.4;53.0
53940;BME280;39850;43.324;21.916;2024-02-26T11:52:16;984.0;;;14.4;53.0
53940;BME280;39850;43.324;21.916;2024-02-26T11:56:53;984.0;;;14.4;53.0
53940;BME280;39850;43.324;21.916;2024-02-26T12:01:48;984.0;;;14.4;53.0
53940;BME280;39850;43.324;21.916;2024-02-26T12:06:25;984.0;;;14.4;53.0
53940;BME280;39850;43.324;21.916;2024-02-26T12:11:04;984.0;;;14.5;52.0
53940;BME280;39850;43.324;21.916;2024-02-26T12:15:58;984.0;;;14.5;52.0
53940;BME280;39850;43.324;21.916;2024-02-26T12:52:55;984.0;;;14.6;52.0
53940;BME280;39850;43.324;21.916;2024-02-26T12:57:39;984.0;;;14.6;52.0
53940;BME280;39850;43.324;21.916;2024-02-26T13:02:16;984.0;;;14.6;52.0
53940;BME280;39850;43.324;21.916;2024-02-26T13:06:53;984.0;;;14.6;52.0
53940;BME280;39850;43.324;21.916;2024-02-26T13:11:30;984.0;;;14.5;52.0
53940;BME280;39850;43.324;21.916;2024-02-26T13:16:15;984.0;;;14.5;52.0
53940;BME280;39850;43.324;21.916;2024-02-26T13:20:51;984.0;;;14.4;51.0
53940;BME280;39850;43.324;21.916;2024-02-26T13:25:27;984.0;;;14.4;51.0
53940;BME280;39850;43.324;21.916;2024-02-26T13:30:12;984.0;;;14.4;51.0
53940;BME280;39850;43.324;21.916;2024-02-26T13:34:48;984.0;;;14.4;51.0
53940;BME280;39850;43.324;21.916;2024-02-26T13:39:28;984.0;;;14.4;51.0
53940;BME280;39850;43.324;21.916;2024-02-26T14:11:48;984.0;;;15.0;48.0
53940;BME280;39850;43.324;21.916;2024-02-26T14:16:25;984.0;;;15.0;48.0
53940;BME280;39850;43.324;21.916;2024-02-26T14:21:01;984.0;;;15.0;49.0
53940;BME280;39850;43.324;21.916;2024-02-26T14:25:38;984.0;;;15.0;49.0
53940;BME280;39850;43.324;21.916;2024-02-26T14:30:16;984.0;;;15.0;49.0
53940;BME280;39850;43.324;21.916;2024-02-26T14:34:52;984.0;;;15.0;48.0
53940;BME280;39850;43.324;21.916;2024-02-26T14:39:31;984.0;;;15.0;48.0
53940;BME280;39850;43.324;21.916;2024-02-26T14:44:08;984.0;;;15.2;48.0
53940;BME280;39850;43.324;21.916;2024-02-26T14:48:45;984.0;;;15.2;48.0
53940;BME280;39850;43.324;21.916;2024-02-26T14:53:21;984.0;;;15.5;48.0
53940;BME280;39850;43.324;21.916;2024-02-26T14:57:57;984.0;;;15.5;48.0
53940;BME280;39850;43.324;21.916;2024-02-26T15:34:51;984.0;;;14.4;52.0
53940;BME280;39850;43.324;21.916;2024-02-26T15:39:27;984.0;;;14.4;52.0
53940;BME280;39850;43.324;21.916;2024-02-26T15:44:06;984.0;;;14.4;51.0
53940;BME280;39850;43.324;21.916;2024-02-26T15:48:42;984.0;;;14.4;51.0
53940;BME280;39850;43.324;21.916;2024-02-26T15:53:18;984.0;;;14.4;50.0
53940;BME280;39850;43.324;21.916;2024-02-26T15:57:55;984.0;;;14.4;50.0
53940;BME280;39850;43.324;21.916;2024-02-26T16:02:31;984.0;;;14.4;50.0
53940;BME280;39850;43.324;21.916;2024-02-26T16:07:35;984.0;;;14.4;50.0
53940;BME280;39850;43.324;21.916;2024-02-26T16:12:41;984.0;;;14.4;50.0
53940;BME280;39850;43.324;21.916;2024-02-26T16:17:34;984.0;;;14.4;50.0
53940;BME280;39850;43.324;21.916;2024-02-26T16:54:29;985.0;;;13.6;53.0
53940;BME280;39850;43.324;21.916;2024-02-26T16:59:05;985.0;;;13.6;53.0
53940;BME280;39850;43.324;21.916;2024-02-26T17:03:42;985.0;;;13.6;53.0
53940;BME280;39850;43.324;21.916;2024-02-26T17:08:18;985.0;;;13.6;53.0
53940;BME280;39850;43.324;21.916;2024-02-26T17:12:54;985.0;;;13.5;53.0
53940;BME280;39850;43.324;21.916;2024-02-26T17:17:31;985.0;;;13.5;53.0
53940;BME280;39850;43.324;21.916;2024-02-26T17:22:07;985.0;;;13.5;53.0
53940;BME280;39850;43.324;21.916;2024-02-26T17:26:44;985.0;;;13.5;53.0
53940;BME280;39850;43.324;21.916;2024-02-26T17:31:20;985.0;;;13.5;53.0
53940;BME280;39850;43.324;21.916;2024-02-26T17:35:56;985.0;;;13.5;53.0
53940;BME280;39850;43.324;21.916;2024-02-26T17:40:33;985.0;;;13.5;53.0
53940;BME280;39850;43.324;21.916;2024-02-26T18:12:47;986.0;;;13.5;53.0
53940;BME280;39850;43.324;21.916;2024-02-26T18:17:24;986.0;;;13.5;53.0
53940;BME280;39850;43.324;21.916;2024-02-26T18:22:00;986.0;;;13.6;53.0
53940;BME280;39850;43.324;21.916;2024-02-26T18:26:36;986.0;;;13.6;53.0
53940;BME280;39850;43.324;21.916;2024-02-26T18:31:13;986.0;;;13.6;53.0
53940;BME280;39850;43.324;21.916;2024-02-26T18:35:50;986.0;;;13.5;53.0
53940;BME280;39850;43.324;21.916;2024-02-26T18:40:26;986.0;;;13.5;53.0
53940;BME280;39850;43.324;21.916;2024-02-26T18:45:04;986.0;;;13.6;54.0
53940;BME280;39850;43.324;21.916;2024-02-26T18:49:41;986.0;;;13.6;54.0
53940;BME280;39850;43.324;21.916;2024-02-26T18:54:18;986.0;;;13.5;53.0
53940;BME280;39850;43.324;21.916;2024-02-26T18:58:54;986.0;;;13.5;53.0
53940;BME280;39850;43.324;21.916;2024-02-26T19:35:49;987.0;;;13.5;53.0
53940;BME280;39850;43.324;21.916;2024-02-26T19:40:25;987.0;;;13.5;53.0
53940;BME280;39850;43.324;21.916;2024-02-26T19:45:01;987.0;;;13.5;53.0
53940;BME280;39850;43.324;21.916;2024-02-26T19:49:37;987.0;;;13.5;53.0
53940;BME280;39850;43.324;21.916;2024-02-26T19:54:13;987.0;;;13.5;53.0
53940;BME280;39850;43.324;21.916;2024-02-26T19:58:49;987.0;;;13.5;53.0
53940;BME280;39850;43.324;21.916;2024-02-26T20:03:25;987.0;;;13.5;54.0
53940;BME280;39850;43.324;21.916;2024-02-26T20:08:03;987.0;;;13.5;54.0
53940;BME280;39850;43.324;21.916;2024-02-26T20:12:41;987.0;;;13.5;54.0
53940;BME280;39850;43.324;21.916;2024-02-26T20:17:17;987.0;;;13.5;54.0
53940;BME280;39850;43.324;21.916;2024-02-26T20:54:08;988.0;;;12.7;57.0
53940;BME280;39850;43.324;21.916;2024-02-26T20:58:44;988.0;;;12.7;57.0
53940;BME280;39850;43.324;21.916;2024-02-26T21:03:21;988.0;;;12.7;57.0
53940;BME280;39850;43.324;21.916;2024-02-26T21:07:57;988.0;;;12.7;57.0
53940;BME280;39850;43.324;21.916;2024-02-26T21:12:33;988.0;;;12.7;57.0
53940;BME280;39850;43.324;21.916;2024-02-26T21:17:10;988.0;;;12.7;57.0
53940;BME280;39850;43.324;21.916;2024-02-26T21:21:46;988.0;;;12.7;57.0
53940;BME280;39850;43.324;21.916;2024-02-26T21:26:22;988.0;;;12.7;57.0
53940;BME280;39850;43.324;21.916;2024-02-26T21:30:58;988.0;;;12.7;57.0
53940;BME280;39850;43.324;21.916;2024-02-26T21:35:35;988.0;;;12.7;57.0
53940;BME280;39850;43.324;21.916;2024-02-26T21:40:13;988.0;;;12.7;57.0
53940;BME280;39850;43.324;21.916;2024-02-26T22:12:27;988.0;;;11.8;61.0
53940;BME280;39850;43.324;21.916;2024-02-26T22:17:04;988.0;;;11.8;61.0
53940;BME280;39850;43.324;21.916;2024-02-26T22:21:43;988.0;;;11.8;61.0
53940;BME280;39850;43.324;21.916;2024-02-26T22:26:21;988.0;;;11.2;61.0
53940;BME280;39850;43.324;21.916;2024-02-26T22:30:58;988.0;;;11.2;61.0
53940;BME280;39850;43.324;21.916;2024-02-26T22:35:35;988.0;;;10.8;61.0
53940;BME280;39850;43.324;21.916;2024-02-26T22:40:13;988.0;;;10.8;61.0
53940;BME280;39850;43.324;21.916;2024-02-26T22:44:50;988.0;;;10.8;62.0
53940;BME280;39850;43.324;21.916;2024-02-26T22:49:26;988.0;;;10.8;62.0
53940;BME280;39850;43.324;21.916;2024-02-26T22:54:03;988.0;;;10.8;63.0
53940;BME280;39850;43.324;21.916;2024-02-26T22:58:40;988.0;;;10.8;63.0
53940;BME280;39850;43.324;21.916;2024-02-26T23:35:36;989.0;;;11.6;59.0
53940;BME280;39850;43.324;21.916;2024-02-26T23:40:12;989.0;;;11.6;59.0
53940;BME280;39850;43.324;21.916;2024-02-26T23:44:49;989.0;;;11.7;59.0
53940;BME280;39850;43.324;21.916;2024-02-26T23:49:26;989.0;;;11.7;59.0
53940;BME280;39850;43.324;21.916;2024-02-26T23:54:02;989.0;;;11.8;59.0
53940;BME280;39850;43.324;21.916;2024-02-26T23:58:39;989.0;;;11.8;59.0
